Terminal Aerodrome Forecast
Issued by NWS Cleveland, OH

Home | Current Version | Previous Version | Text Only | Print | Product List | Glossary On
Versions: 1 2 3 4 5 6 7 8 9 10 11 12 13 14 15
000
FTUS41 KCLE 221737
TAFERI
TAF
KERI 221737Z 2218/2318 27015G35KT 1SM -TSRA BKN040CB BKN060
     FM221830 26010G20KT 5SM -SHRA BKN040 OVC060
     FM230000 28015G25KT P6SM VCSH BKN040 OVC080
     FM230300 32012G22KT P6SM SCT040 BKN060
     FM231100 29010G20KT P6SM SKC=

USA.gov is the U.S. government's official web portal to all federal, state and local government web resources and services.